createdAt,value
2023-03-23T15:58:12.775Z,3.85
2023-03-23T16:00:42.655Z,4.38
2023-03-23T16:03:16.242Z,4.10
2023-03-23T16:05:43.257Z,3.75
2023-03-23T16:08:12.408Z,2.63
2023-03-23T16:10:39.270Z,2.55
2023-03-23T16:13:07.159Z,3.63
2023-03-23T16:15:36.799Z,3.65
2023-03-23T16:18:04.031Z,5.20
2023-03-23T16:20:33.180Z,4.90
2023-03-23T16:23:00.799Z,3.65
2023-03-23T16:25:27.659Z,2.85
2023-03-23T16:27:54.669Z,7.57
2023-03-23T16:30:28.960Z,4.47
2023-03-23T16:32:57.655Z,4.53
2023-03-23T16:35:27.101Z,2.67
2023-03-23T16:38:08.169Z,7.03
2023-03-23T16:40:37.475Z,3.78
2023-03-23T16:43:09.230Z,2.65
2023-03-23T16:45:38.394Z,2.90
2023-03-23T16:48:07.932Z,2.60
2023-03-23T16:50:36.242Z,5.13
2023-03-23T16:53:04.598Z,3.13
2023-03-23T16:55:31.869Z,4.38
2023-03-23T17:00:40.971Z,4.55
2023-03-23T17:03:08.470Z,3.50
2023-03-23T17:05:36.918Z,5.55
2023-03-23T17:08:04.220Z,3.45
2023-03-23T17:10:32.026Z,5.45
2023-03-23T17:12:58.884Z,4.10
2023-03-23T17:15:25.843Z,3.38
2023-03-23T17:17:55.377Z,4.63
2023-03-23T17:20:23.330Z,3.35
2023-03-23T17:22:50.456Z,3.00
2023-03-23T17:25:19.464Z,3.47
2023-03-23T17:27:46.526Z,3.97
2023-03-23T17:30:13.486Z,3.67
2023-03-23T17:35:15.611Z,3.15
2023-03-23T17:37:43.482Z,4.78
2023-03-23T17:40:11.212Z,4.72
2023-03-23T17:42:38.272Z,4.32
2023-03-23T17:45:07.310Z,5.45
2023-03-23T17:47:34.772Z,4.25
2023-03-23T17:50:11.246Z,4.25
2023-03-23T17:52:39.768Z,2.45
2023-03-23T17:55:07.211Z,3.00
2023-03-23T17:57:35.148Z,4.38
2023-03-23T18:00:02.554Z,4.28
2023-03-23T18:02:29.358Z,4.55
2023-03-23T18:04:59.834Z,2.72
2023-03-23T18:07:27.032Z,3.45
2023-03-23T18:09:58.771Z,3.17
2023-03-23T18:12:26.128Z,3.35
2023-03-23T18:14:59.220Z,2.70
2023-03-23T18:17:26.395Z,3.13
2023-03-23T18:19:53.419Z,3.53
2023-03-23T18:22:20.407Z,3.20
2023-03-23T18:24:47.504Z,4.53
2023-03-23T18:27:14.655Z,3.70
2023-03-23T18:29:41.558Z,5.45
2023-03-23T18:32:08.571Z,4.50
2023-03-23T18:34:36.673Z,3.67
2023-03-23T18:37:04.232Z,4.60
2023-03-23T18:39:34.097Z,4.95
2023-03-23T18:42:01.221Z,3.90
2023-03-23T18:44:28.127Z,3.67
2023-03-23T18:46:54.911Z,5.30
2023-03-23T18:49:21.850Z,6.57
2023-03-23T18:51:48.709Z,3.40
2023-03-23T18:54:17.351Z,4.30
2023-03-23T18:56:44.117Z,5.25
2023-03-23T18:59:11.071Z,4.22
2023-03-23T19:01:37.982Z,4.72
2023-03-23T19:04:06.639Z,4.57
2023-03-23T19:06:34.999Z,7.80
2023-03-23T19:09:02.334Z,6.45
2023-03-23T19:11:29.182Z,6.40
2023-03-23T19:14:02.188Z,6.75
2023-03-23T19:16:32.599Z,5.78
2023-03-23T19:19:01.920Z,9.18
2023-03-23T19:21:32.030Z,7.18
2023-03-23T19:23:59.903Z,10.38
2023-03-23T19:26:33.165Z,10.45
2023-03-23T19:31:31.797Z,7.32
2023-03-23T19:33:59.101Z,6.32
2023-03-23T19:36:26.769Z,8.80
2023-03-23T19:38:54.595Z,9.32
2023-03-23T19:41:22.065Z,8.07
2023-03-23T19:43:49.167Z,6.88
2023-03-23T19:46:16.430Z,6.90
2023-03-23T19:48:43.954Z,7.40
2023-03-23T19:51:12.626Z,9.80
2023-03-23T19:53:40.188Z,7.57
2023-03-23T19:56:13.245Z,7.50
2023-03-23T19:58:40.244Z,5.68
2023-03-23T20:01:07.553Z,7.97
2023-03-23T20:03:35.239Z,9.10
2023-03-23T20:06:04.078Z,12.25
2023-03-23T20:08:31.789Z,13.07
2023-03-23T20:11:06.608Z,8.55
2023-03-23T20:13:33.663Z,7.85
2023-03-23T20:16:01.134Z,6.53
2023-03-23T20:18:29.893Z,6.57
2023-03-23T20:21:29.391Z,8.73
2023-03-23T20:23:58.665Z,5.65
2023-03-23T20:26:28.598Z,8.57
2023-03-23T20:28:55.610Z,6.60
2023-03-23T20:31:26.532Z,5.90
2023-03-23T20:34:02.751Z,7.05
2023-03-23T20:36:40.326Z,9.82
2023-03-23T20:39:11.422Z,8.00
2023-03-23T20:41:40.322Z,6.45
2023-03-23T20:44:14.007Z,4.93
2023-03-23T20:46:45.204Z,7.55
2023-03-23T20:49:13.194Z,6.80
2023-03-23T20:51:40.398Z,5.95
2023-03-23T20:54:07.856Z,7.15
2023-03-23T20:56:34.965Z,5.82
2023-03-23T20:59:02.475Z,6.20
2023-03-23T21:01:29.716Z,9.20
2023-03-23T21:03:57.925Z,8.98
2023-03-23T21:06:28.498Z,8.20
2023-03-23T21:08:57.066Z,6.38
2023-03-23T21:11:26.420Z,6.70
2023-03-23T21:13:53.956Z,9.48
2023-03-23T21:16:20.994Z,7.15
2023-03-23T21:18:47.939Z,7.40
2023-03-23T21:21:18.219Z,8.52
2023-03-23T21:23:46.795Z,5.38
2023-03-23T21:26:16.957Z,7.30
2023-03-23T21:28:44.850Z,8.93
2023-03-23T21:31:12.455Z,8.13
2023-03-23T21:33:39.681Z,7.70
2023-03-23T21:36:07.074Z,6.55
2023-03-23T21:38:34.378Z,6.93
2023-03-23T21:41:07.809Z,7.78
2023-03-23T21:43:34.687Z,7.05
2023-03-23T21:46:05.186Z,6.65
2023-03-23T21:48:33.100Z,7.82
2023-03-23T21:51:08.756Z,6.40
2023-03-23T21:53:37.142Z,6.40
2023-03-23T21:56:07.190Z,9.38
2023-03-23T21:58:34.585Z,7.32
2023-03-23T22:01:02.185Z,6.57
2023-03-23T22:03:34.679Z,6.65
2023-03-23T22:08:38.444Z,5.50
2023-03-23T22:11:08.646Z,8.32
2023-03-23T22:13:38.734Z,5.65
2023-03-23T22:16:13.257Z,7.78
2023-03-23T22:18:43.163Z,6.72
2023-03-23T22:21:10.644Z,5.25
2023-03-23T22:23:37.988Z,7.55
2023-03-23T22:26:05.798Z,5.47
2023-03-23T22:28:33.935Z,6.90
2023-03-23T22:31:18.627Z,5.68
2023-03-23T22:33:46.709Z,6.40
2023-03-23T22:36:14.330Z,6.03
2023-03-23T22:38:43.464Z,6.55
2023-03-23T22:41:17.974Z,6.47
2023-03-23T22:43:44.825Z,7.22
2023-03-23T22:46:11.590Z,6.88
2023-03-23T22:48:38.708Z,6.28
2023-03-23T22:51:05.655Z,6.57
2023-03-23T22:53:32.465Z,8.32
2023-03-23T22:55:59.274Z,7.88
2023-03-23T22:58:27.693Z,5.95
2023-03-23T23:01:03.623Z,5.60
2023-03-23T23:03:31.586Z,5.45
2023-03-23T23:05:59.501Z,6.88
2023-03-23T23:08:27.829Z,7.13
2023-03-23T23:10:56.899Z,5.38
2023-03-23T23:13:24.508Z,5.68
2023-03-23T23:15:54.016Z,5.90
2023-03-23T23:18:21.263Z,6.07
2023-03-23T23:20:53.456Z,4.85
2023-03-23T23:23:21.362Z,4.60
2023-03-23T23:25:49.692Z,5.00
2023-03-23T23:28:17.058Z,5.45
2023-03-23T23:30:44.325Z,4.65
2023-03-23T23:33:11.530Z,6.35
2023-03-23T23:35:39.690Z,5.93
2023-03-23T23:38:09.359Z,6.65
2023-03-23T23:40:36.447Z,7.03
2023-03-23T23:43:04.217Z,6.00
2023-03-23T23:45:31.600Z,4.45
2023-03-23T23:47:59.160Z,5.55
2023-03-23T23:50:26.620Z,5.72
2023-03-23T23:52:53.807Z,5.25
2023-03-23T23:55:21.406Z,4.82
2023-03-23T23:57:49.166Z,6.82
